sensor_id;sensor_type;location;lat;lon;timestamp;P1;durP1;ratioP1;P2;durP2;ratioP2
61962;SDS011;47927;42.646;23.096;2023-06-19T00:00:18;8.38;;;4.55;;
61962;SDS011;47927;42.646;23.096;2023-06-19T00:02:45;5.65;;;3.75;;
61962;SDS011;47927;42.646;23.096;2023-06-19T00:05:12;7.88;;;3.85;;
61962;SDS011;47927;42.646;23.096;2023-06-19T00:07:37;5.68;;;3.65;;
61962;SDS011;47927;42.646;23.096;2023-06-19T00:10:04;5.57;;;3.88;;
61962;SDS011;47927;42.646;23.096;2023-06-19T00:12:31;5.88;;;3.40;;
61962;SDS011;47927;42.646;23.096;2023-06-19T00:14:57;5.75;;;3.50;;
61962;SDS011;47927;42.646;23.096;2023-06-19T00:17:23;10.90;;;3.70;;
61962;SDS011;47927;42.646;23.096;2023-06-19T00:19:51;5.63;;;3.38;;
61962;SDS011;47927;42.646;23.096;2023-06-19T00:22:18;5.65;;;3.75;;
61962;SDS011;47927;42.646;23.096;2023-06-19T00:24:43;7.10;;;3.70;;
61962;SDS011;47927;42.646;23.096;2023-06-19T00:27:09;8.85;;;3.38;;
61962;SDS011;47927;42.646;23.096;2023-06-19T00:29:34;6.60;;;3.03;;
61962;SDS011;47927;42.646;23.096;2023-06-19T00:32:00;7.47;;;3.47;;
61962;SDS011;47927;42.646;23.096;2023-06-19T00:34:25;7.07;;;4.82;;
61962;SDS011;47927;42.646;23.096;2023-06-19T00:36:54;9.13;;;5.90;;
61962;SDS011;47927;42.646;23.096;2023-06-19T00:39:25;11.00;;;5.82;;
61962;SDS011;47927;42.646;23.096;2023-06-19T00:44:17;7.78;;;5.38;;
61962;SDS011;47927;42.646;23.096;2023-06-19T00:46:42;7.90;;;5.72;;
61962;SDS011;47927;42.646;23.096;2023-06-19T00:49:08;7.03;;;5.35;;
61962;SDS011;47927;42.646;23.096;2023-06-19T00:51:34;12.93;;;4.85;;
61962;SDS011;47927;42.646;23.096;2023-06-19T00:54:00;9.55;;;4.68;;
61962;SDS011;47927;42.646;23.096;2023-06-19T00:56:26;8.85;;;5.63;;
61962;SDS011;47927;42.646;23.096;2023-06-19T00:58:52;9.13;;;5.70;;
61962;SDS011;47927;42.646;23.096;2023-06-19T01:01:19;8.73;;;6.05;;
61962;SDS011;47927;42.646;23.096;2023-06-19T01:03:46;8.18;;;5.88;;
61962;SDS011;47927;42.646;23.096;2023-06-19T01:06:17;8.85;;;5.53;;
61962;SDS011;47927;42.646;23.096;2023-06-19T01:11:32;11.50;;;5.15;;
61962;SDS011;47927;42.646;23.096;2023-06-19T01:14:03;8.60;;;5.68;;
61962;SDS011;47927;42.646;23.096;2023-06-19T01:16:38;7.75;;;5.20;;
61962;SDS011;47927;42.646;23.096;2023-06-19T01:19:04;8.65;;;5.38;;
61962;SDS011;47927;42.646;23.096;2023-06-19T01:21:33;8.48;;;4.60;;
61962;SDS011;47927;42.646;23.096;2023-06-19T01:23:58;6.03;;;4.72;;
61962;SDS011;47927;42.646;23.096;2023-06-19T01:26:24;10.30;;;5.40;;
61962;SDS011;47927;42.646;23.096;2023-06-19T01:28:52;7.35;;;5.22;;
61962;SDS011;47927;42.646;23.096;2023-06-19T01:32:22;7.68;;;5.10;;
61962;SDS011;47927;42.646;23.096;2023-06-19T01:34:25;11.85;;;4.90;;
61962;SDS011;47927;42.646;23.096;2023-06-19T01:36:52;10.70;;;3.88;;
61962;SDS011;47927;42.646;23.096;2023-06-19T01:41:48;5.60;;;3.40;;
61962;SDS011;47927;42.646;23.096;2023-06-19T01:44:14;8.88;;;3.95;;
61962;SDS011;47927;42.646;23.096;2023-06-19T01:46:40;10.80;;;4.10;;
61962;SDS011;47927;42.646;23.096;2023-06-19T01:49:06;8.52;;;3.65;;
61962;SDS011;47927;42.646;23.096;2023-06-19T01:51:34;7.25;;;3.55;;
61962;SDS011;47927;42.646;23.096;2023-06-19T01:53:59;5.47;;;3.90;;
61962;SDS011;47927;42.646;23.096;2023-06-19T01:56:25;7.30;;;3.88;;
61962;SDS011;47927;42.646;23.096;2023-06-19T01:58:51;8.45;;;3.97;;
61962;SDS011;47927;42.646;23.096;2023-06-19T02:01:16;7.70;;;3.60;;
61962;SDS011;47927;42.646;23.096;2023-06-19T02:03:42;11.38;;;4.00;;
61962;SDS011;47927;42.646;23.096;2023-06-19T02:06:08;8.80;;;3.38;;
61962;SDS011;47927;42.646;23.096;2023-06-19T02:08:34;9.40;;;3.80;;
61962;SDS011;47927;42.646;23.096;2023-06-19T02:11:00;7.07;;;4.00;;
61962;SDS011;47927;42.646;23.096;2023-06-19T02:13:26;5.35;;;3.38;;
61962;SDS011;47927;42.646;23.096;2023-06-19T02:15:51;9.90;;;4.10;;
61962;SDS011;47927;42.646;23.096;2023-06-19T02:18:17;11.50;;;3.63;;
61962;SDS011;47927;42.646;23.096;2023-06-19T02:20:42;7.93;;;3.90;;
61962;SDS011;47927;42.646;23.096;2023-06-19T02:23:08;6.32;;;3.60;;
61962;SDS011;47927;42.646;23.096;2023-06-19T02:25:34;8.82;;;3.72;;
61962;SDS011;47927;42.646;23.096;2023-06-19T02:28:00;7.75;;;3.97;;
61962;SDS011;47927;42.646;23.096;2023-06-19T02:30:27;11.27;;;4.05;;
61962;SDS011;47927;42.646;23.096;2023-06-19T02:32:52;6.82;;;3.65;;
61962;SDS011;47927;42.646;23.096;2023-06-19T02:35:18;7.30;;;3.60;;
61962;SDS011;47927;42.646;23.096;2023-06-19T02:37:44;6.28;;;3.50;;
61962;SDS011;47927;42.646;23.096;2023-06-19T02:40:11;7.22;;;4.28;;
61962;SDS011;47927;42.646;23.096;2023-06-19T02:42:55;7.32;;;3.80;;
61962;SDS011;47927;42.646;23.096;2023-06-19T02:45:21;7.20;;;3.22;;
61962;SDS011;47927;42.646;23.096;2023-06-19T02:47:46;6.65;;;4.40;;
61962;SDS011;47927;42.646;23.096;2023-06-19T02:50:12;6.20;;;3.60;;
61962;SDS011;47927;42.646;23.096;2023-06-19T02:52:38;10.32;;;3.85;;
61962;SDS011;47927;42.646;23.096;2023-06-19T02:55:03;6.47;;;3.45;;
61962;SDS011;47927;42.646;23.096;2023-06-19T02:57:29;4.80;;;3.60;;
61962;SDS011;47927;42.646;23.096;2023-06-19T02:59:55;8.88;;;3.78;;
61962;SDS011;47927;42.646;23.096;2023-06-19T03:02:20;6.45;;;4.30;;
61962;SDS011;47927;42.646;23.096;2023-06-19T03:04:46;5.75;;;4.35;;
61962;SDS011;47927;42.646;23.096;2023-06-19T03:07:11;10.88;;;3.88;;
61962;SDS011;47927;42.646;23.096;2023-06-19T03:09:39;14.40;;;3.97;;
61962;SDS011;47927;42.646;23.096;2023-06-19T03:12:06;6.32;;;4.10;;
61962;SDS011;47927;42.646;23.096;2023-06-19T03:14:32;10.95;;;3.58;;
61962;SDS011;47927;42.646;23.096;2023-06-19T03:16:57;9.93;;;4.10;;
61962;SDS011;47927;42.646;23.096;2023-06-19T03:19:23;8.63;;;3.78;;
61962;SDS011;47927;42.646;23.096;2023-06-19T03:21:49;6.95;;;3.83;;
61962;SDS011;47927;42.646;23.096;2023-06-19T03:24:15;5.80;;;3.30;;
61962;SDS011;47927;42.646;23.096;2023-06-19T03:26:41;8.15;;;3.70;;
61962;SDS011;47927;42.646;23.096;2023-06-19T03:29:07;9.57;;;3.90;;
61962;SDS011;47927;42.646;23.096;2023-06-19T03:31:49;5.80;;;3.47;;
61962;SDS011;47927;42.646;23.096;2023-06-19T03:34:16;7.03;;;3.92;;
61962;SDS011;47927;42.646;23.096;2023-06-19T03:36:42;8.18;;;3.90;;
61962;SDS011;47927;42.646;23.096;2023-06-19T03:39:09;6.60;;;3.58;;
61962;SDS011;47927;42.646;23.096;2023-06-19T03:41:36;6.88;;;4.00;;
61962;SDS011;47927;42.646;23.096;2023-06-19T03:44:02;6.65;;;4.03;;
61962;SDS011;47927;42.646;23.096;2023-06-19T03:46:27;9.68;;;4.03;;
61962;SDS011;47927;42.646;23.096;2023-06-19T03:48:53;10.88;;;4.00;;
61962;SDS011;47927;42.646;23.096;2023-06-19T03:51:19;7.80;;;4.40;;
61962;SDS011;47927;42.646;23.096;2023-06-19T03:53:45;8.23;;;4.43;;
61962;SDS011;47927;42.646;23.096;2023-06-19T03:56:10;7.40;;;4.00;;
61962;SDS011;47927;42.646;23.096;2023-06-19T03:58:36;10.40;;;4.85;;
61962;SDS011;47927;42.646;23.096;2023-06-19T04:01:01;6.20;;;4.03;;
61962;SDS011;47927;42.646;23.096;2023-06-19T04:03:28;5.45;;;3.55;;
61962;SDS011;47927;42.646;23.096;2023-06-19T04:05:53;8.48;;;3.50;;
61962;SDS011;47927;42.646;23.096;2023-06-19T04:08:19;6.30;;;3.70;;
61962;SDS011;47927;42.646;23.096;2023-06-19T04:10:44;6.25;;;3.30;;
61962;SDS011;47927;42.646;23.096;2023-06-19T04:13:10;4.80;;;3.05;;
61962;SDS011;47927;42.646;23.096;2023-06-19T04:15:36;6.38;;;2.80;;
61962;SDS011;47927;42.646;23.096;2023-06-19T04:18:02;5.72;;;2.90;;
61962;SDS011;47927;42.646;23.096;2023-06-19T04:20:29;10.45;;;3.03;;
61962;SDS011;47927;42.646;23.096;2023-06-19T04:22:54;10.70;;;5.18;;
61962;SDS011;47927;42.646;23.096;2023-06-19T04:25:20;4.50;;;2.78;;
61962;SDS011;47927;42.646;23.096;2023-06-19T04:27:46;5.45;;;3.30;;
61962;SDS011;47927;42.646;23.096;2023-06-19T04:30:11;5.90;;;3.40;;
61962;SDS011;47927;42.646;23.096;2023-06-19T04:32:37;5.78;;;2.88;;
61962;SDS011;47927;42.646;23.096;2023-06-19T04:35:09;8.10;;;3.22;;
61962;SDS011;47927;42.646;23.096;2023-06-19T04:40:01;7.50;;;4.00;;
61962;SDS011;47927;42.646;23.096;2023-06-19T04:42:26;9.98;;;4.45;;
61962;SDS011;47927;42.646;23.096;2023-06-19T04:44:52;7.75;;;5.28;;
61962;SDS011;47927;42.646;23.096;2023-06-19T04:47:19;8.32;;;4.15;;
61962;SDS011;47927;42.646;23.096;2023-06-19T04:49:47;8.38;;;4.25;;
61962;SDS011;47927;42.646;23.096;2023-06-19T04:52:12;9.95;;;4.78;;
61962;SDS011;47927;42.646;23.096;2023-06-19T04:54:38;7.57;;;4.40;;
61962;SDS011;47927;42.646;23.096;2023-06-19T04:57:03;7.97;;;4.50;;
61962;SDS011;47927;42.646;23.096;2023-06-19T04:59:29;7.05;;;4.07;;
61962;SDS011;47927;42.646;23.096;2023-06-19T05:01:56;7.00;;;3.85;;
61962;SDS011;47927;42.646;23.096;2023-06-19T05:04:22;9.45;;;4.20;;
61962;SDS011;47927;42.646;23.096;2023-06-19T05:06:48;6.47;;;4.05;;
61962;SDS011;47927;42.646;23.096;2023-06-19T05:09:14;8.27;;;4.70;;
61962;SDS011;47927;42.646;23.096;2023-06-19T05:11:40;9.20;;;4.68;;
61962;SDS011;47927;42.646;23.096;2023-06-19T05:14:05;8.10;;;4.70;;
61962;SDS011;47927;42.646;23.096;2023-06-19T05:16:33;6.43;;;4.70;;
61962;SDS011;47927;42.646;23.096;2023-06-19T05:18:59;8.20;;;4.57;;
61962;SDS011;47927;42.646;23.096;2023-06-19T05:21:25;7.10;;;4.38;;
61962;SDS011;47927;42.646;23.096;2023-06-19T05:23:50;8.90;;;4.28;;
61962;SDS011;47927;42.646;23.096;2023-06-19T05:26:18;6.45;;;4.00;;
61962;SDS011;47927;42.646;23.096;2023-06-19T05:28:44;7.97;;;3.97;;
61962;SDS011;47927;42.646;23.096;2023-06-19T05:31:10;8.10;;;4.10;;
61962;SDS011;47927;42.646;23.096;2023-06-19T05:33:35;6.28;;;4.35;;
61962;SDS011;47927;42.646;23.096;2023-06-19T05:36:01;6.95;;;4.25;;
61962;SDS011;47927;42.646;23.096;2023-06-19T05:38:26;10.00;;;5.10;;
61962;SDS011;47927;42.646;23.096;2023-06-19T05:40:55;8.15;;;4.97;;
61962;SDS011;47927;42.646;23.096;2023-06-19T05:43:21;7.32;;;4.35;;
61962;SDS011;47927;42.646;23.096;2023-06-19T05:45:47;9.13;;;5.28;;
61962;SDS011;47927;42.646;23.096;2023-06-19T05:48:13;11.30;;;5.43;;
61962;SDS011;47927;42.646;23.096;2023-06-19T05:50:38;10.70;;;4.95;;
61962;SDS011;47927;42.646;23.096;2023-06-19T05:53:04;10.43;;;5.65;;
61962;SDS011;47927;42.646;23.096;2023-06-19T05:55:30;12.07;;;5.57;;
61962;SDS011;47927;42.646;23.096;2023-06-19T05:57:56;9.07;;;5.03;;
61962;SDS011;47927;42.646;23.096;2023-06-19T06:00:21;9.77;;;4.78;;
61962;SDS011;47927;42.646;23.096;2023-06-19T06:02:47;9.23;;;4.47;;
61962;SDS011;47927;42.646;23.096;2023-06-19T06:05:13;16.85;;;5.97;;
61962;SDS011;47927;42.646;23.096;2023-06-19T06:07:39;11.73;;;5.55;;
61962;SDS011;47927;42.646;23.096;2023-06-19T06:10:05;11.88;;;5.32;;
61962;SDS011;47927;42.646;23.096;2023-06-19T06:12:34;11.43;;;6.57;;
61962;SDS011;47927;42.646;23.096;2023-06-19T06:15:00;8.32;;;5.18;;
61962;SDS011;47927;42.646;23.096;2023-06-19T06:17:27;8.10;;;4.50;;
61962;SDS011;47927;42.646;23.096;2023-06-19T06:19:53;8.00;;;4.93;;
61962;SDS011;47927;42.646;23.096;2023-06-19T06:22:19;7.82;;;4.25;;
61962;SDS011;47927;42.646;23.096;2023-06-19T06:24:44;8.98;;;4.30;;
61962;SDS011;47927;42.646;23.096;2023-06-19T06:27:12;6.72;;;4.00;;
61962;SDS011;47927;42.646;23.096;2023-06-19T06:29:38;7.90;;;3.83;;
61962;SDS011;47927;42.646;23.096;2023-06-19T06:32:04;7.60;;;3.47;;
61962;SDS011;47927;42.646;23.096;2023-06-19T06:34:31;5.80;;;3.72;;
61962;SDS011;47927;42.646;23.096;2023-06-19T06:36:58;8.23;;;4.40;;
61962;SDS011;47927;42.646;23.096;2023-06-19T06:39:23;6.60;;;3.70;;
61962;SDS011;47927;42.646;23.096;2023-06-19T06:41:49;5.10;;;3.20;;
61962;SDS011;47927;42.646;23.096;2023-06-19T06:44:16;4.63;;;3.30;;
61962;SDS011;47927;42.646;23.096;2023-06-19T06:46:42;6.07;;;3.15;;
61962;SDS011;47927;42.646;23.096;2023-06-19T06:49:07;6.75;;;3.30;;
61962;SDS011;47927;42.646;23.096;2023-06-19T06:51:33;4.07;;;2.92;;
61962;SDS011;47927;42.646;23.096;2023-06-19T06:53:58;3.90;;;3.13;;
61962;SDS011;47927;42.646;23.096;2023-06-19T06:56:24;5.13;;;3.08;;
61962;SDS011;47927;42.646;23.096;2023-06-19T06:58:49;6.13;;;2.67;;
61962;SDS011;47927;42.646;23.096;2023-06-19T07:01:15;3.75;;;2.50;;
61962;SDS011;47927;42.646;23.096;2023-06-19T07:03:41;4.28;;;2.70;;
61962;SDS011;47927;42.646;23.096;2023-06-19T07:06:06;3.95;;;2.50;;
61962;SDS011;47927;42.646;23.096;2023-06-19T07:08:32;6.85;;;2.75;;
61962;SDS011;47927;42.646;23.096;2023-06-19T07:10:57;3.53;;;2.60;;
61962;SDS011;47927;42.646;23.096;2023-06-19T07:13:23;6.32;;;2.40;;
61962;SDS011;47927;42.646;23.096;2023-06-19T07:15:48;3.65;;;2.42;;
61962;SDS011;47927;42.646;23.096;2023-06-19T07:18:14;4.90;;;2.38;;
61962;SDS011;47927;42.646;23.096;2023-06-19T07:20:39;4.97;;;2.72;;
61962;SDS011;47927;42.646;23.096;2023-06-19T07:23:05;3.80;;;2.22;;
61962;SDS011;47927;42.646;23.096;2023-06-19T07:25:31;3.45;;;2.50;;
61962;SDS011;47927;42.646;23.096;2023-06-19T07:27:59;3.25;;;2.42;;
61962;SDS011;47927;42.646;23.096;2023-06-19T07:30:25;4.75;;;2.70;;
61962;SDS011;47927;42.646;23.096;2023-06-19T07:32:51;4.25;;;2.60;;
61962;SDS011;47927;42.646;23.096;2023-06-19T07:35:16;4.93;;;2.38;;
61962;SDS011;47927;42.646;23.096;2023-06-19T07:37:42;4.38;;;2.40;;
61962;SDS011;47927;42.646;23.096;2023-06-19T07:40:08;3.05;;;2.33;;
61962;SDS011;47927;42.646;23.096;2023-06-19T07:42:34;6.00;;;2.47;;
61962;SDS011;47927;42.646;23.096;2023-06-19T07:44:59;3.63;;;2.50;;
61962;SDS011;47927;42.646;23.096;2023-06-19T07:47:26;3.58;;;2.58;;
61962;SDS011;47927;42.646;23.096;2023-06-19T07:49:52;3.20;;;2.30;;
61962;SDS011;47927;42.646;23.096;2023-06-19T07:52:17;3.72;;;2.40;;
61962;SDS011;47927;42.646;23.096;2023-06-19T07:54:56;3.00;;;2.63;;
61962;SDS011;47927;42.646;23.096;2023-06-19T07:57:23;3.92;;;2.80;;
61962;SDS011;47927;42.646;23.096;2023-06-19T07:59:50;3.80;;;2.38;;
61962;SDS011;47927;42.646;23.096;2023-06-19T08:02:17;4.35;;;2.42;;
61962;SDS011;47927;42.646;23.096;2023-06-19T08:04:42;3.75;;;2.50;;
61962;SDS011;47927;42.646;23.096;2023-06-19T08:07:08;3.53;;;2.28;;
61962;SDS011;47927;42.646;23.096;2023-06-19T08:09:34;5.63;;;2.53;;
61962;SDS011;47927;42.646;23.096;2023-06-19T08:12:00;5.80;;;2.30;;
61962;SDS011;47927;42.646;23.096;2023-06-19T08:14:26;5.03;;;2.63;;
61962;SDS011;47927;42.646;23.096;2023-06-19T08:16:51;3.83;;;2.40;;
61962;SDS011;47927;42.646;23.096;2023-06-19T08:19:17;3.60;;;2.55;;
61962;SDS011;47927;42.646;23.096;2023-06-19T08:21:42;3.03;;;2.42;;
61962;SDS011;47927;42.646;23.096;2023-06-19T08:24:08;3.53;;;2.50;;
61962;SDS011;47927;42.646;23.096;2023-06-19T08:26:33;4.20;;;2.40;;
61962;SDS011;47927;42.646;23.096;2023-06-19T08:28:59;3.92;;;2.40;;
61962;SDS011;47927;42.646;23.096;2023-06-19T08:31:24;5.35;;;2.60;;
61962;SDS011;47927;42.646;23.096;2023-06-19T08:33:55;3.97;;;2.55;;
61962;SDS011;47927;42.646;23.096;2023-06-19T08:36:22;5.25;;;2.63;;
61962;SDS011;47927;42.646;23.096;2023-06-19T08:38:48;4.20;;;2.63;;
61962;SDS011;47927;42.646;23.096;2023-06-19T08:41:15;5.03;;;2.40;;
61962;SDS011;47927;42.646;23.096;2023-06-19T08:43:44;5.38;;;2.47;;
61962;SDS011;47927;42.646;23.096;2023-06-19T08:46:10;7.10;;;2.40;;
61962;SDS011;47927;42.646;23.096;2023-06-19T08:48:37;3.58;;;2.40;;
61962;SDS011;47927;42.646;23.096;2023-06-19T08:51:04;4.57;;;2.50;;
61962;SDS011;47927;42.646;23.096;2023-06-19T08:53:35;3.75;;;2.40;;
61962;SDS011;47927;42.646;23.096;2023-06-19T08:58:33;5.53;;;2.47;;
61962;SDS011;47927;42.646;23.096;2023-06-19T09:00:59;4.90;;;2.50;;
61962;SDS011;47927;42.646;23.096;2023-06-19T09:03:25;7.25;;;2.35;;
61962;SDS011;47927;42.646;23.096;2023-06-19T09:05:50;4.40;;;2.65;;
61962;SDS011;47927;42.646;23.096;2023-06-19T09:08:16;4.25;;;2.28;;
61962;SDS011;47927;42.646;23.096;2023-06-19T09:10:53;3.20;;;2.50;;
61962;SDS011;47927;42.646;23.096;2023-06-19T09:13:29;6.70;;;2.75;;
61962;SDS011;47927;42.646;23.096;2023-06-19T09:15:57;3.47;;;2.38;;
61962;SDS011;47927;42.646;23.096;2023-06-19T09:18:51;5.05;;;2.40;;
61962;SDS011;47927;42.646;23.096;2023-06-19T09:21:20;4.93;;;2.83;;
61962;SDS011;47927;42.646;23.096;2023-06-19T09:23:50;5.55;;;2.40;;
61962;SDS011;47927;42.646;23.096;2023-06-19T09:26:21;4.90;;;2.70;;
61962;SDS011;47927;42.646;23.096;2023-06-19T09:28:46;3.03;;;2.30;;
61962;SDS011;47927;42.646;23.096;2023-06-19T09:31:15;4.30;;;2.70;;
61962;SDS011;47927;42.646;23.096;2023-06-19T09:33:41;3.75;;;2.65;;
61962;SDS011;47927;42.646;23.096;2023-06-19T09:36:07;3.75;;;2.63;;
61962;SDS011;47927;42.646;23.096;2023-06-19T09:38:34;4.00;;;2.20;;
61962;SDS011;47927;42.646;23.096;2023-06-19T09:41:06;4.68;;;2.60;;
61962;SDS011;47927;42.646;23.096;2023-06-19T09:43:39;6.95;;;2.70;;
61962;SDS011;47927;42.646;23.096;2023-06-19T09:46:10;3.33;;;2.38;;
61962;SDS011;47927;42.646;23.096;2023-06-19T09:48:40;7.65;;;2.45;;
61962;SDS011;47927;42.646;23.096;2023-06-19T09:56:02;3.95;;;2.80;;
61962;SDS011;47927;42.646;23.096;2023-06-19T09:58:27;4.88;;;2.47;;
61962;SDS011;47927;42.646;23.096;2023-06-19T10:00:54;7.03;;;2.95;;
61962;SDS011;47927;42.646;23.096;2023-06-19T10:03:20;4.10;;;2.60;;
61962;SDS011;47927;42.646;23.096;2023-06-19T10:05:46;8.07;;;2.70;;
61962;SDS011;47927;42.646;23.096;2023-06-19T10:08:11;3.63;;;2.67;;
61962;SDS011;47927;42.646;23.096;2023-06-19T10:10:37;4.05;;;2.70;;
61962;SDS011;47927;42.646;23.096;2023-06-19T10:13:13;4.05;;;2.50;;
61962;SDS011;47927;42.646;23.096;2023-06-19T10:15:42;4.32;;;2.70;;
61962;SDS011;47927;42.646;23.096;2023-06-19T10:18:13;6.18;;;2.72;;
61962;SDS011;47927;42.646;23.096;2023-06-19T10:20:41;4.22;;;2.35;;
61962;SDS011;47927;42.646;23.096;2023-06-19T10:23:11;5.70;;;2.60;;
61962;SDS011;47927;42.646;23.096;2023-06-19T10:25:38;3.80;;;2.50;;
61962;SDS011;47927;42.646;23.096;2023-06-19T10:28:15;6.00;;;2.45;;
61962;SDS011;47927;42.646;23.096;2023-06-19T10:33:19;3.83;;;2.40;;
61962;SDS011;47927;42.646;23.096;2023-06-19T10:35:45;5.35;;;2.50;;
61962;SDS011;47927;42.646;23.096;2023-06-19T10:38:13;3.85;;;2.42;;
61962;SDS011;47927;42.646;23.096;2023-06-19T10:40:40;4.90;;;2.42;;
61962;SDS011;47927;42.646;23.096;2023-06-19T10:43:05;3.78;;;2.65;;
61962;SDS011;47927;42.646;23.096;2023-06-19T10:45:31;4.03;;;2.80;;
61962;SDS011;47927;42.646;23.096;2023-06-19T10:47:57;3.60;;;2.50;;
61962;SDS011;47927;42.646;23.096;2023-06-19T10:50:28;4.22;;;2.70;;
61962;SDS011;47927;42.646;23.096;2023-06-19T10:52:54;3.85;;;2.70;;
61962;SDS011;47927;42.646;23.096;2023-06-19T10:55:20;4.97;;;2.90;;
61962;SDS011;47927;42.646;23.096;2023-06-19T10:57:47;3.35;;;2.25;;
61962;SDS011;47927;42.646;23.096;2023-06-19T11:00:30;3.92;;;2.83;;
61962;SDS011;47927;42.646;23.096;2023-06-19T11:02:58;5.13;;;3.05;;
61962;SDS011;47927;42.646;23.096;2023-06-19T11:05:25;4.20;;;2.70;;
61962;SDS011;47927;42.646;23.096;2023-06-19T11:07:56;6.60;;;3.00;;
61962;SDS011;47927;42.646;23.096;2023-06-19T11:10:23;4.70;;;2.88;;
61962;SDS011;47927;42.646;23.096;2023-06-19T11:12:53;5.68;;;3.03;;
61962;SDS011;47927;42.646;23.096;2023-06-19T11:15:20;3.90;;;2.83;;
61962;SDS011;47927;42.646;23.096;2023-06-19T11:17:46;3.90;;;2.60;;
61962;SDS011;47927;42.646;23.096;2023-06-19T11:20:13;6.03;;;2.80;;
61962;SDS011;47927;42.646;23.096;2023-06-19T11:22:40;3.90;;;2.63;;
61962;SDS011;47927;42.646;23.096;2023-06-19T11:25:06;4.97;;;2.53;;
61962;SDS011;47927;42.646;23.096;2023-06-19T11:27:33;8.55;;;3.03;;
61962;SDS011;47927;42.646;23.096;2023-06-19T11:30:00;8.75;;;2.60;;
61962;SDS011;47927;42.646;23.096;2023-06-19T11:35:06;4.82;;;2.33;;
61962;SDS011;47927;42.646;23.096;2023-06-19T11:37:34;4.00;;;2.38;;
61962;SDS011;47927;42.646;23.096;2023-06-19T11:40:02;4.22;;;2.60;;
61962;SDS011;47927;42.646;23.096;2023-06-19T11:42:44;5.35;;;2.65;;
61962;SDS011;47927;42.646;23.096;2023-06-19T11:45:13;4.78;;;2.75;;
61962;SDS011;47927;42.646;23.096;2023-06-19T11:47:39;4.03;;;2.50;;
61962;SDS011;47927;42.646;23.096;2023-06-19T11:50:05;3.95;;;2.90;;
61962;SDS011;47927;42.646;23.096;2023-06-19T11:52:32;4.22;;;2.75;;
61962;SDS011;47927;42.646;23.096;2023-06-19T11:54:58;3.50;;;2.40;;
61962;SDS011;47927;42.646;23.096;2023-06-19T11:57:23;5.47;;;2.80;;
61962;SDS011;47927;42.646;23.096;2023-06-19T11:59:49;3.50;;;2.38;;
61962;SDS011;47927;42.646;23.096;2023-06-19T12:02:15;4.55;;;2.50;;
61962;SDS011;47927;42.646;23.096;2023-06-19T12:04:40;5.82;;;2.90;;
61962;SDS011;47927;42.646;23.096;2023-06-19T12:07:06;4.30;;;2.90;;
61962;SDS011;47927;42.646;23.096;2023-06-19T12:09:31;4.20;;;2.65;;
61962;SDS011;47927;42.646;23.096;2023-06-19T12:11:57;5.25;;;2.92;;
61962;SDS011;47927;42.646;23.096;2023-06-19T12:14:23;4.80;;;2.65;;
61962;SDS011;47927;42.646;23.096;2023-06-19T12:16:49;5.50;;;3.20;;
61962;SDS011;47927;42.646;23.096;2023-06-19T12:19:15;4.80;;;2.63;;
61962;SDS011;47927;42.646;23.096;2023-06-19T12:21:41;4.32;;;2.65;;
61962;SDS011;47927;42.646;23.096;2023-06-19T12:24:06;4.03;;;2.60;;
61962;SDS011;47927;42.646;23.096;2023-06-19T12:26:33;4.70;;;2.92;;
61962;SDS011;47927;42.646;23.096;2023-06-19T12:29:03;5.60;;;2.88;;
61962;SDS011;47927;42.646;23.096;2023-06-19T12:31:29;5.78;;;2.90;;
61962;SDS011;47927;42.646;23.096;2023-06-19T12:33:56;3.63;;;2.50;;
61962;SDS011;47927;42.646;23.096;2023-06-19T12:36:21;4.28;;;2.42;;
61962;SDS011;47927;42.646;23.096;2023-06-19T12:38:47;4.63;;;2.80;;
61962;SDS011;47927;42.646;23.096;2023-06-19T12:41:14;4.80;;;3.05;;
61962;SDS011;47927;42.646;23.096;2023-06-19T12:43:40;5.20;;;3.08;;
61962;SDS011;47927;42.646;23.096;2023-06-19T12:46:06;7.15;;;3.17;;
61962;SDS011;47927;42.646;23.096;2023-06-19T12:48:32;5.00;;;3.25;;
61962;SDS011;47927;42.646;23.096;2023-06-19T12:50:58;5.40;;;3.17;;
61962;SDS011;47927;42.646;23.096;2023-06-19T12:53:24;10.02;;;2.83;;
61962;SDS011;47927;42.646;23.096;2023-06-19T12:55:54;7.22;;;2.95;;
61962;SDS011;47927;42.646;23.096;2023-06-19T12:58:19;5.40;;;2.97;;
61962;SDS011;47927;42.646;23.096;2023-06-19T13:00:45;6.18;;;2.80;;
61962;SDS011;47927;42.646;23.096;2023-06-19T13:03:10;4.07;;;2.60;;
61962;SDS011;47927;42.646;23.096;2023-06-19T13:05:36;4.13;;;2.80;;
61962;SDS011;47927;42.646;23.096;2023-06-19T13:08:01;4.63;;;2.75;;
61962;SDS011;47927;42.646;23.096;2023-06-19T13:10:27;8.38;;;2.95;;
61962;SDS011;47927;42.646;23.096;2023-06-19T13:12:52;5.57;;;2.95;;
61962;SDS011;47927;42.646;23.096;2023-06-19T13:15:18;8.35;;;3.00;;
61962;SDS011;47927;42.646;23.096;2023-06-19T13:17:43;5.00;;;2.80;;
61962;SDS011;47927;42.646;23.096;2023-06-19T13:20:09;4.88;;;2.58;;
61962;SDS011;47927;42.646;23.096;2023-06-19T13:22:35;4.60;;;2.60;;
61962;SDS011;47927;42.646;23.096;2023-06-19T13:25:01;4.35;;;2.58;;
61962;SDS011;47927;42.646;23.096;2023-06-19T13:27:27;3.28;;;2.20;;
61962;SDS011;47927;42.646;23.096;2023-06-19T13:29:53;4.60;;;2.75;;
61962;SDS011;47927;42.646;23.096;2023-06-19T13:32:20;3.85;;;2.47;;
61962;SDS011;47927;42.646;23.096;2023-06-19T13:34:46;5.22;;;2.85;;
61962;SDS011;47927;42.646;23.096;2023-06-19T13:37:11;5.93;;;2.72;;
61962;SDS011;47927;42.646;23.096;2023-06-19T13:39:37;4.00;;;2.45;;
61962;SDS011;47927;42.646;23.096;2023-06-19T13:42:03;3.72;;;2.53;;
61962;SDS011;47927;42.646;23.096;2023-06-19T13:44:29;4.10;;;2.72;;
61962;SDS011;47927;42.646;23.096;2023-06-19T13:46:55;4.88;;;3.10;;
61962;SDS011;47927;42.646;23.096;2023-06-19T13:49:20;5.25;;;2.95;;
61962;SDS011;47927;42.646;23.096;2023-06-19T13:51:46;5.07;;;2.67;;
61962;SDS011;47927;42.646;23.096;2023-06-19T13:54:12;4.78;;;2.78;;
61962;SDS011;47927;42.646;23.096;2023-06-19T13:56:38;7.97;;;2.70;;
61962;SDS011;47927;42.646;23.096;2023-06-19T13:59:05;4.75;;;2.40;;
61962;SDS011;47927;42.646;23.096;2023-06-19T14:01:30;5.00;;;2.78;;
61962;SDS011;47927;42.646;23.096;2023-06-19T14:03:57;4.30;;;2.53;;
61962;SDS011;47927;42.646;23.096;2023-06-19T14:06:23;4.68;;;2.80;;
61962;SDS011;47927;42.646;23.096;2023-06-19T14:08:49;4.07;;;2.55;;
61962;SDS011;47927;42.646;23.096;2023-06-19T14:11:15;4.05;;;2.60;;
61962;SDS011;47927;42.646;23.096;2023-06-19T14:13:41;4.38;;;2.92;;
61962;SDS011;47927;42.646;23.096;2023-06-19T14:16:06;4.55;;;3.13;;
61962;SDS011;47927;42.646;23.096;2023-06-19T14:18:32;4.47;;;2.60;;
61962;SDS011;47927;42.646;23.096;2023-06-19T14:20:58;3.75;;;2.75;;
61962;SDS011;47927;42.646;23.096;2023-06-19T14:23:24;8.43;;;3.03;;
61962;SDS011;47927;42.646;23.096;2023-06-19T14:25:49;5.72;;;2.92;;
61962;SDS011;47927;42.646;23.096;2023-06-19T14:28:15;3.72;;;2.60;;
61962;SDS011;47927;42.646;23.096;2023-06-19T14:30:41;3.75;;;2.67;;
61962;SDS011;47927;42.646;23.096;2023-06-19T14:33:06;3.97;;;2.67;;
61962;SDS011;47927;42.646;23.096;2023-06-19T14:35:53;5.07;;;3.10;;
61962;SDS011;47927;42.646;23.096;2023-06-19T14:38:19;10.80;;;2.92;;
61962;SDS011;47927;42.646;23.096;2023-06-19T14:40:45;5.22;;;3.20;;
61962;SDS011;47927;42.646;23.096;2023-06-19T14:43:11;5.18;;;2.90;;
61962;SDS011;47927;42.646;23.096;2023-06-19T14:45:36;6.03;;;3.17;;
61962;SDS011;47927;42.646;23.096;2023-06-19T14:48:03;6.35;;;3.70;;
61962;SDS011;47927;42.646;23.096;2023-06-19T14:50:29;4.95;;;2.80;;
61962;SDS011;47927;42.646;23.096;2023-06-19T14:53:13;4.05;;;2.55;;